Time;durP1;ratioP1;P1;durP2;ratioP2;P2;SDS_P1;SDS_P2;PMS_P1;PMS_P2;Temp;Humidity;BMP_temperature;BMP_pressure;BME280_temperature;BME280_humidity;BME280_pressure;Samples;Min_cycle;Max_cycle;Signal;HPM_P1;HPM_P2
2023/02/02 00:00:46;;;;;;;2.93;1.13;;;;;;;;;;6237815;28;20304;-77
2023/02/02 00:03:51;;;;;;;1.10;1.10;;;;;;;;;;6220437;28;20319;-77
2023/02/02 00:06:59;;;;;;;0.90;0.90;;;;;;;;;;6236291;28;20464;-77
2023/02/02 00:10:04;;;;;;;2.43;1.00;;;;;;;;;;6237195;28;20311;-76
2023/02/02 00:13:11;;;;;;;1.00;1.00;;;;;;;;;;6216531;28;20310;-77
2023/02/02 00:16:38;;;;;;;1.00;1.00;;;;;;;;;;6212349;28;20296;-76
2023/02/02 00:19:45;;;;;;;1.00;1.00;;;;;;;;;;6212601;28;20301;-77
2023/02/02 00:22:52;;;;;;;1.20;1.07;;;;;;;;;;6211413;28;20290;-76
2023/02/02 00:25:58;;;;;;;1.23;0.93;;;;;;;;;;6207339;28;20476;-77
2023/02/02 00:29:04;;;;;;;0.90;0.90;;;;;;;;;;6213045;28;20304;-76
2023/02/02 00:32:11;;;;;;;1.10;1.00;;;;;;;;;;6223752;28;20306;-78
2023/02/02 00:35:17;;;;;;;1.40;1.20;;;;;;;;;;6231765;28;20295;-78
2023/02/02 00:38:23;;;;;;;0.93;0.93;;;;;;;;;;6237157;28;20291;-78
2023/02/02 00:41:30;;;;;;;1.00;1.00;;;;;;;;;;6235608;28;20288;-76
2023/02/02 00:47:57;;;;;;;0.90;0.90;;;;;;;;;;6236054;28;20315;-78
2023/02/02 00:51:02;;;;;;;0.90;0.90;;;;;;;;;;6236539;28;20299;-77
2023/02/02 00:54:09;;;;;;;1.07;0.90;;;;;;;;;;6235878;28;20292;-77
2023/02/02 00:57:15;;;;;;;1.77;1.10;;;;;;;;;;6218574;28;20615;-76
2023/02/02 01:00:23;;;;;;;1.60;1.10;;;;;;;;;;6218866;28;20287;-77
2023/02/02 01:03:31;;;;;;;0.90;0.90;;;;;;;;;;6219492;28;20302;-78
2023/02/02 01:06:36;;;;;;;1.03;1.03;;;;;;;;;;6236175;28;20295;-77
2023/02/02 01:09:42;;;;;;;0.93;0.90;;;;;;;;;;6236645;28;20304;-76
2023/02/02 01:12:48;;;;;;;1.60;0.97;;;;;;;;;;6210609;28;20296;-76
2023/02/02 01:15:56;;;;;;;2.93;0.90;;;;;;;;;;6210806;28;20299;-77
2023/02/02 01:19:03;;;;;;;1.17;1.03;;;;;;;;;;6211966;28;20320;-77
2023/02/02 01:22:08;;;;;;;0.83;0.83;;;;;;;;;;6211173;28;20511;-76
2023/02/02 01:25:15;;;;;;;1.23;0.80;;;;;;;;;;6211465;28;20434;-76
2023/02/02 01:28:21;;;;;;;1.40;0.80;;;;;;;;;;6210715;28;20291;-76
2023/02/02 01:31:25;;;;;;;0.80;0.80;;;;;;;;;;6216217;28;20303;-76
2023/02/02 01:34:32;;;;;;;0.90;0.90;;;;;;;;;;6236186;28;20303;-76
2023/02/02 01:37:38;;;;;;;0.90;0.90;;;;;;;;;;6234455;28;20295;-77
2023/02/02 01:40:49;;;;;;;1.20;1.10;;;;;;;;;;6235578;28;20291;-76
2023/02/02 01:43:57;;;;;;;0.90;0.90;;;;;;;;;;6216513;28;20278;-77
2023/02/02 01:47:05;;;;;;;0.90;0.90;;;;;;;;;;6218511;28;20295;-76
2023/02/02 01:50:14;;;;;;;1.10;1.00;;;;;;;;;;6218290;28;20298;-77
2023/02/02 01:53:19;;;;;;;0.97;0.97;;;;;;;;;;6218376;28;20295;-77
2023/02/02 01:56:30;;;;;;;0.90;0.90;;;;;;;;;;6234198;28;20295;-78
2023/02/02 01:59:37;;;;;;;1.13;1.13;;;;;;;;;;6234563;28;20295;-77
2023/02/02 02:02:45;;;;;;;1.10;1.10;;;;;;;;;;6279657;23;20282;-80
2023/02/02 02:05:54;;;;;;;1.23;1.00;;;;;;;;;;6258879;28;20293;-80
2023/02/02 02:09:02;;;;;;;1.10;1.10;;;;;;;;;;6260057;28;20593;-80
2023/02/02 02:12:14;;;;;;;1.00;1.00;;;;;;;;;;6235171;28;20307;-80
2023/02/02 02:18:49;;;;;;;1.30;1.20;;;;;;;;;;6236302;28;20295;-80
2023/02/02 02:29:47;;;;;;;1.20;1.10;;;;;;;;;;6213328;28;20282;-80
2023/02/02 02:32:58;;;;;;;1.20;1.10;;;;;;;;;;6217640;28;20313;-80
2023/02/02 02:36:07;;;;;;;1.27;1.17;;;;;;;;;;6235002;28;20297;-81
2023/02/02 02:39:17;;;;;;;1.00;1.00;;;;;;;;;;6247805;28;20305;-80
2023/02/02 02:42:25;;;;;;;1.17;1.03;;;;;;;;;;6264784;28;20299;-80
2023/02/02 02:45:32;;;;;;;0.80;0.80;;;;;;;;;;6264333;28;20491;-81
2023/02/02 02:48:39;;;;;;;1.00;1.00;;;;;;;;;;6265192;28;20293;-80
2023/02/02 02:51:47;;;;;;;1.00;1.00;;;;;;;;;;6264852;28;20295;-80
2023/02/02 02:55:00;;;;;;;0.87;0.87;;;;;;;;;;6247401;28;20302;-79
2023/02/02 02:58:09;;;;;;;0.93;0.93;;;;;;;;;;6248887;28;20480;-80
2023/02/02 03:01:20;;;;;;;0.90;0.90;;;;;;;;;;6274351;28;20291;-79
2023/02/02 03:04:32;;;;;;;0.80;0.80;;;;;;;;;;6281650;28;20277;-79
2023/02/02 03:07:41;;;;;;;1.00;1.00;;;;;;;;;;6279709;28;20286;-79
2023/02/02 03:10:47;;;;;;;0.80;0.80;;;;;;;;;;6266902;28;20304;-81
2023/02/02 03:13:53;;;;;;;0.87;0.87;;;;;;;;;;6245788;28;20267;-81
2023/02/02 03:16:58;;;;;;;0.70;0.70;;;;;;;;;;6263866;28;20298;-80
2023/02/02 03:20:06;;;;;;;0.70;0.70;;;;;;;;;;6263104;28;20289;-81
2023/02/02 03:23:13;;;;;;;0.80;0.80;;;;;;;;;;6247145;28;20292;-81
2023/02/02 03:26:18;;;;;;;0.90;0.90;;;;;;;;;;6262093;28;20288;-80
2023/02/02 03:29:24;;;;;;;0.90;0.90;;;;;;;;;;6264064;28;20292;-80
2023/02/02 03:32:29;;;;;;;0.97;0.90;;;;;;;;;;6262664;28;20475;-80
2023/02/02 03:35:36;;;;;;;0.90;0.90;;;;;;;;;;6262709;28;20300;-80
2023/02/02 03:38:41;;;;;;;0.67;0.67;;;;;;;;;;6263260;28;20307;-80
2023/02/02 03:41:46;;;;;;;0.70;0.70;;;;;;;;;;6263139;28;20583;-80
2023/02/02 03:44:52;;;;;;;0.70;0.70;;;;;;;;;;6263111;28;20472;-80
2023/02/02 03:47:57;;;;;;;0.97;0.97;;;;;;;;;;6263425;28;20300;-80
2023/02/02 03:51:08;;;;;;;1.30;0.90;;;;;;;;;;6263287;28;20304;-79
2023/02/02 03:54:14;;;;;;;0.90;0.90;;;;;;;;;;6263123;28;20299;-79
2023/02/02 03:57:20;;;;;;;0.80;0.80;;;;;;;;;;6262422;28;20296;-80
2023/02/02 04:00:25;;;;;;;0.90;0.90;;;;;;;;;;6261980;28;20301;-80
2023/02/02 04:03:30;;;;;;;0.70;0.70;;;;;;;;;;6261306;28;20346;-80
2023/02/02 04:06:37;;;;;;;1.70;1.00;;;;;;;;;;6263324;28;20292;-80
2023/02/02 04:09:42;;;;;;;0.90;0.90;;;;;;;;;;6262631;28;20293;-80
2023/02/02 04:12:47;;;;;;;0.93;0.93;;;;;;;;;;6237676;28;20589;-80
2023/02/02 04:15:58;;;;;;;0.87;0.87;;;;;;;;;;6238497;28;20296;-80
2023/02/02 04:19:03;;;;;;;1.00;1.00;;;;;;;;;;6243841;28;20305;-80
2023/02/02 04:22:09;;;;;;;0.97;0.97;;;;;;;;;;6262368;28;20295;-80
2023/02/02 04:25:15;;;;;;;0.90;0.90;;;;;;;;;;6262181;28;20295;-80
2023/02/02 04:28:21;;;;;;;0.90;0.90;;;;;;;;;;6262187;28;20291;-80
2023/02/02 04:31:28;;;;;;;1.10;1.10;;;;;;;;;;6262313;28;20304;-80
2023/02/02 04:34:34;;;;;;;1.10;1.10;;;;;;;;;;6262224;28;20300;-80
2023/02/02 04:37:40;;;;;;;1.33;1.20;;;;;;;;;;6261766;28;20296;-79
2023/02/02 04:40:47;;;;;;;1.43;1.30;;;;;;;;;;6262977;28;20308;-79
2023/02/02 04:43:52;;;;;;;1.20;1.20;;;;;;;;;;6261434;28;20297;-81
2023/02/02 04:46:57;;;;;;;1.53;1.43;;;;;;;;;;6263449;28;20267;-80
2023/02/02 04:50:02;;;;;;;1.60;1.50;;;;;;;;;;6262491;28;20300;-80
2023/02/02 04:53:09;;;;;;;1.23;1.23;;;;;;;;;;6261727;28;20300;-79
2023/02/02 04:56:16;;;;;;;2.67;1.60;;;;;;;;;;6261312;28;20379;-80
2023/02/02 04:59:23;;;;;;;1.33;1.33;;;;;;;;;;6261125;28;20477;-80
2023/02/02 05:02:28;;;;;;;1.70;1.20;;;;;;;;;;6260724;28;20569;-80
2023/02/02 05:05:34;;;;;;;1.43;1.20;;;;;;;;;;6242935;28;20284;-80
2023/02/02 05:08:42;;;;;;;1.63;1.40;;;;;;;;;;6243696;28;20322;-80
2023/02/02 05:11:47;;;;;;;1.53;1.50;;;;;;;;;;6255745;28;20304;-80
2023/02/02 05:14:53;;;;;;;1.43;1.40;;;;;;;;;;6260885;28;20301;-80
2023/02/02 05:17:59;;;;;;;1.87;1.50;;;;;;;;;;6261035;28;20297;-80
2023/02/02 05:21:04;;;;;;;1.50;1.50;;;;;;;;;;6260125;28;20603;-80
2023/02/02 05:24:14;;;;;;;1.20;1.10;;;;;;;;;;6260606;28;20668;-80
2023/02/02 05:27:22;;;;;;;1.20;1.20;;;;;;;;;;6244032;28;20294;-79
2023/02/02 05:30:30;;;;;;;1.40;1.40;;;;;;;;;;6260466;28;20306;-80
2023/02/02 05:33:37;;;;;;;1.37;1.30;;;;;;;;;;6260919;28;20295;-80
2023/02/02 05:36:44;;;;;;;1.60;1.60;;;;;;;;;;6261157;28;20302;-80
2023/02/02 05:39:52;;;;;;;1.57;1.57;;;;;;;;;;6260403;28;20317;-80
2023/02/02 05:42:57;;;;;;;1.50;1.50;;;;;;;;;;6260960;28;20293;-80
2023/02/02 05:46:03;;;;;;;1.63;1.50;;;;;;;;;;6260855;28;20295;-80
2023/02/02 05:49:13;;;;;;;1.40;1.40;;;;;;;;;;6244560;28;20363;-80
2023/02/02 05:52:21;;;;;;;1.37;1.37;;;;;;;;;;6261093;28;20298;-80
2023/02/02 05:55:30;;;;;;;1.73;1.60;;;;;;;;;;6242389;28;20297;-79
2023/02/02 05:58:38;;;;;;;1.23;1.23;;;;;;;;;;6227258;28;20298;-80
2023/02/02 06:01:43;;;;;;;1.40;1.40;;;;;;;;;;6260057;28;20316;-80
2023/02/02 06:04:49;;;;;;;1.30;1.30;;;;;;;;;;6260058;28;20308;-81
2023/02/02 06:07:55;;;;;;;1.40;1.40;;;;;;;;;;6259419;28;20623;-79
2023/02/02 06:11:09;;;;;;;1.30;1.30;;;;;;;;;;6242361;28;20280;-80
2023/02/02 06:14:14;;;;;;;1.40;1.40;;;;;;;;;;6258596;28;20293;-81
2023/02/02 06:17:19;;;;;;;2.03;1.83;;;;;;;;;;6260783;28;20291;-80
2023/02/02 06:20:26;;;;;;;1.37;1.37;;;;;;;;;;6259441;28;20554;-81
2023/02/02 06:23:34;;;;;;;2.07;1.40;;;;;;;;;;6259957;28;20292;-80
2023/02/02 06:26:41;;;;;;;1.50;1.50;;;;;;;;;;6207098;28;20290;-80
2023/02/02 06:29:46;;;;;;;1.40;1.20;;;;;;;;;;6235671;28;20306;-80
2023/02/02 06:32:51;;;;;;;3.90;1.50;;;;;;;;;;6234867;28;20309;-81
2023/02/02 06:36:00;;;;;;;1.57;1.50;;;;;;;;;;6235864;28;20302;-80
2023/02/02 06:39:06;;;;;;;1.40;1.40;;;;;;;;;;6217677;28;20294;-80
2023/02/02 06:42:13;;;;;;;1.23;1.23;;;;;;;;;;6218162;28;20323;-82
2023/02/02 06:45:26;;;;;;;1.33;1.33;;;;;;;;;;6234903;28;20294;-81
2023/02/02 06:48:32;;;;;;;1.33;1.33;;;;;;;;;;6234713;28;20483;-80
2023/02/02 06:51:38;;;;;;;2.00;1.50;;;;;;;;;;6218425;28;20293;-80
2023/02/02 06:54:43;;;;;;;1.43;1.40;;;;;;;;;;6217976;28;20295;-81
2023/02/02 06:57:50;;;;;;;1.40;1.40;;;;;;;;;;6234891;28;20299;-81
2023/02/02 07:00:55;;;;;;;1.20;1.20;;;;;;;;;;6235300;28;20473;-80
2023/02/02 07:04:02;;;;;;;1.30;1.30;;;;;;;;;;6234845;28;20298;-80
2023/02/02 07:07:08;;;;;;;1.37;1.37;;;;;;;;;;6238093;28;20295;-80
2023/02/02 07:10:14;;;;;;;1.30;1.30;;;;;;;;;;6252102;28;20335;-80
2023/02/02 07:13:41;;;;;;;1.50;1.40;;;;;;;;;;6264671;28;20289;-80
2023/02/02 07:16:50;;;;;;;1.40;1.40;;;;;;;;;;6262332;28;20604;-79
2023/02/02 07:19:55;;;;;;;1.30;1.30;;;;;;;;;;6245771;28;20310;-80
2023/02/02 07:23:01;;;;;;;1.40;1.40;;;;;;;;;;6263361;28;20429;-81
2023/02/02 07:26:08;;;;;;;1.67;1.60;;;;;;;;;;6263324;28;20268;-80
2023/02/02 07:29:15;;;;;;;3.03;1.40;;;;;;;;;;6245874;28;20284;-81
2023/02/02 07:32:21;;;;;;;1.70;1.30;;;;;;;;;;6263835;28;20295;-81
2023/02/02 07:35:28;;;;;;;1.50;1.40;;;;;;;;;;6263807;28;20298;-81
2023/02/02 07:38:34;;;;;;;1.57;1.47;;;;;;;;;;6263056;28;20604;-81
2023/02/02 07:41:39;;;;;;;1.47;1.47;;;;;;;;;;6263601;28;20296;-81
2023/02/02 07:44:54;;;;;;;3.17;1.50;;;;;;;;;;6245736;28;20601;-80
2023/02/02 07:48:02;;;;;;;2.80;1.30;;;;;;;;;;6244887;28;20289;-80
2023/02/02 07:51:09;;;;;;;1.30;1.30;;;;;;;;;;6263966;28;20288;-81
2023/02/02 07:54:17;;;;;;;1.20;1.20;;;;;;;;;;6262404;28;20472;-80
2023/02/02 07:57:22;;;;;;;1.20;1.20;;;;;;;;;;6263473;28;20303;-80
2023/02/02 08:00:29;;;;;;;1.50;1.40;;;;;;;;;;6262938;28;20312;-80
2023/02/02 08:03:34;;;;;;;1.17;1.17;;;;;;;;;;6214618;28;20617;-80
2023/02/02 08:06:41;;;;;;;1.73;1.40;;;;;;;;;;6213140;28;20314;-78
2023/02/02 08:09:47;;;;;;;1.60;1.60;;;;;;;;;;6213575;28;20319;-80
2023/02/02 08:12:53;;;;;;;1.40;1.40;;;;;;;;;;6227336;28;20291;-79
2023/02/02 08:19:21;;;;;;;1.40;1.40;;;;;;;;;;6211724;28;20354;-81
2023/02/02 08:22:26;;;;;;;1.37;1.37;;;;;;;;;;6213821;28;20300;-79
2023/02/02 08:25:31;;;;;;;1.40;1.40;;;;;;;;;;6212944;28;20291;-79
2023/02/02 08:28:37;;;;;;;1.40;1.40;;;;;;;;;;6227483;28;20292;-79
2023/02/02 08:31:44;;;;;;;1.60;1.53;;;;;;;;;;6214830;28;20294;-79
2023/02/02 08:34:50;;;;;;;1.40;1.40;;;;;;;;;;6213440;28;20311;-78
2023/02/02 08:37:56;;;;;;;1.50;1.50;;;;;;;;;;6213088;28;20294;-80
2023/02/02 08:41:05;;;;;;;2.03;1.70;;;;;;;;;;6213488;28;20290;-79
2023/02/02 08:44:14;;;;;;;1.53;1.53;;;;;;;;;;6219417;28;20284;-79
2023/02/02 08:47:21;;;;;;;1.40;1.40;;;;;;;;;;6228800;28;20277;-78
2023/02/02 08:50:27;;;;;;;1.27;1.27;;;;;;;;;;6227138;28;20246;-80
2023/02/02 08:53:32;;;;;;;1.30;1.30;;;;;;;;;;6217869;28;20295;-81
2023/02/02 08:56:38;;;;;;;1.40;1.30;;;;;;;;;;6212351;28;20548;-81
2023/02/02 08:59:43;;;;;;;1.53;1.43;;;;;;;;;;6212433;28;20318;-81
2023/02/02 09:02:52;;;;;;;1.53;1.40;;;;;;;;;;6245511;28;20309;-79
2023/02/02 09:05:57;;;;;;;1.30;1.30;;;;;;;;;;6236624;28;20292;-80
2023/02/02 09:09:06;;;;;;;1.30;1.30;;;;;;;;;;6233731;28;20306;-79
2023/02/02 09:12:11;;;;;;;2.13;1.17;;;;;;;;;;6234871;28;20293;-80
2023/02/02 09:15:17;;;;;;;2.60;1.20;;;;;;;;;;6234558;28;20301;-80
2023/02/02 09:18:24;;;;;;;1.70;1.10;;;;;;;;;;6236347;28;20293;-80
2023/02/02 09:21:29;;;;;;;2.77;1.30;;;;;;;;;;6251748;28;20316;-80
2023/02/02 09:24:35;;;;;;;1.80;1.47;;;;;;;;;;6233882;28;20513;-80
2023/02/02 09:27:40;;;;;;;1.50;1.40;;;;;;;;;;6235695;28;20300;-81
2023/02/02 09:30:45;;;;;;;2.17;1.40;;;;;;;;;;6233973;28;20297;-79
2023/02/02 09:33:52;;;;;;;1.43;1.43;;;;;;;;;;6235499;28;20293;-81
2023/02/02 09:37:00;;;;;;;1.80;1.70;;;;;;;;;;6218453;28;20317;-80
2023/02/02 09:40:16;;;;;;;28.37;10.27;;;;;;;;;;6234806;28;20333;-80
2023/02/02 09:43:36;;;;;;;13.90;8.27;;;;;;;;;;6236037;28;20467;-80
2023/02/02 09:46:51;;;;;;;1.57;1.57;;;;;;;;;;6236591;28;20298;-81
2023/02/02 09:50:02;;;;;;;1.50;1.40;;;;;;;;;;6234097;28;20543;-80
2023/02/02 09:53:14;;;;;;;2.50;2.20;;;;;;;;;;6235289;28;20295;-80
2023/02/02 09:56:24;;;;;;;1.50;1.50;;;;;;;;;;6236441;28;20285;-79
2023/02/02 09:59:33;;;;;;;2.77;2.67;;;;;;;;;;6235579;28;20284;-80
2023/02/02 10:02:41;;;;;;;2.00;1.87;;;;;;;;;;6252751;28;20296;-80
2023/02/02 10:05:52;;;;;;;1.53;1.53;;;;;;;;;;6260838;28;20369;-80
2023/02/02 10:09:02;;;;;;;2.70;1.47;;;;;;;;;;6242818;28;20306;-80
2023/02/02 10:12:17;;;;;;;1.50;1.50;;;;;;;;;;6259366;28;20561;-80
2023/02/02 10:15:31;;;;;;;2.20;2.10;;;;;;;;;;6259685;28;20288;-81
2023/02/02 10:18:42;;;;;;;2.00;2.00;;;;;;;;;;6260008;28;20297;-80
2023/02/02 10:21:54;;;;;;;4.30;4.00;;;;;;;;;;6259441;28;20298;-81
2023/02/02 10:25:00;;;;;;;2.30;2.20;;;;;;;;;;6259729;28;20618;-81
2023/02/02 10:28:20;;;;;;;2.13;2.00;;;;;;;;;;6243096;28;20581;-80
2023/02/02 10:31:36;;;;;;;2.67;2.50;;;;;;;;;;6260990;28;20569;-80
2023/02/02 10:34:43;;;;;;;2.03;1.53;;;;;;;;;;6261166;28;20305;-81
2023/02/02 10:37:55;;;;;;;1.90;1.80;;;;;;;;;;6259624;28;20308;-81
2023/02/02 10:41:10;;;;;;;1.80;1.70;;;;;;;;;;6261180;28;20286;-81
2023/02/02 10:44:24;;;;;;;1.30;1.30;;;;;;;;;;6266784;28;20310;-80
2023/02/02 10:47:31;;;;;;;1.90;1.50;;;;;;;;;;6267834;28;20292;-80
2023/02/02 10:50:37;;;;;;;1.70;1.70;;;;;;;;;;6264433;28;20284;-80
2023/02/02 10:53:49;;;;;;;1.53;1.30;;;;;;;;;;6247119;28;20291;-80
2023/02/02 10:56:57;;;;;;;1.60;1.50;;;;;;;;;;6264589;28;20477;-81
2023/02/02 11:00:09;;;;;;;2.50;2.50;;;;;;;;;;6264525;28;20289;-81
2023/02/02 11:03:15;;;;;;;1.23;1.23;;;;;;;;;;6229576;28;20307;-81
2023/02/02 11:09:47;;;;;;;4.53;1.30;;;;;;;;;;6215590;28;20307;-81
2023/02/02 11:12:55;;;;;;;2.23;1.30;;;;;;;;;;6215593;28;20483;-80
2023/02/02 11:16:20;;;;;;;2.87;1.40;;;;;;;;;;6231204;28;20291;-81
2023/02/02 11:19:29;;;;;;;1.10;1.10;;;;;;;;;;6214940;28;20304;-81
2023/02/02 11:22:37;;;;;;;1.43;1.30;;;;;;;;;;6214654;28;20297;-81
2023/02/02 11:25:44;;;;;;;2.20;2.20;;;;;;;;;;6215896;28;20298;-80
2023/02/02 11:28:50;;;;;;;2.00;1.80;;;;;;;;;;6215029;28;20299;-80
2023/02/02 11:31:55;;;;;;;2.60;1.10;;;;;;;;;;6200212;28;20271;-81
2023/02/02 11:35:22;;;;;;;1.00;1.00;;;;;;;;;;6214978;28;20303;-80
2023/02/02 11:38:29;;;;;;;1.30;1.30;;;;;;;;;;6213353;28;20478;-80
2023/02/02 11:41:37;;;;;;;2.50;2.43;;;;;;;;;;6214853;28;20286;-80
2023/02/02 11:44:48;;;;;;;2.30;2.30;;;;;;;;;;6214370;28;20484;-82
2023/02/02 11:48:02;;;;;;;1.30;1.30;;;;;;;;;;6214368;28;20293;-82
2023/02/02 11:51:22;;;;;;;1.00;1.00;;;;;;;;;;6215797;28;20305;-80
2023/02/02 11:54:31;;;;;;;1.20;1.20;;;;;;;;;;6213840;28;20309;-81
2023/02/02 11:57:38;;;;;;;5.00;1.10;;;;;;;;;;6230332;28;20300;-79
2023/02/02 12:00:48;;;;;;;1.10;1.10;;;;;;;;;;6217194;28;20556;-81
2023/02/02 12:03:54;;;;;;;1.60;1.60;;;;;;;;;;6262671;28;20304;-81
2023/02/02 12:06:59;;;;;;;1.30;1.23;;;;;;;;;;6263219;28;20288;-81
2023/02/02 12:10:14;;;;;;;1.10;1.10;;;;;;;;;;6262381;28;20293;-81
2023/02/02 12:13:39;;;;;;;1.57;1.57;;;;;;;;;;6262298;28;20291;-80
2023/02/02 12:16:57;;;;;;;1.77;1.77;;;;;;;;;;6245121;28;20307;-81
2023/02/02 12:20:15;;;;;;;1.40;1.40;;;;;;;;;;6261284;28;20296;-81
2023/02/02 12:23:30;;;;;;;1.30;1.20;;;;;;;;;;6262060;28;20295;-82
2023/02/02 12:26:37;;;;;;;2.73;1.40;;;;;;;;;;6262316;28;20284;-82
2023/02/02 12:30:04;;;;;;;1.40;1.40;;;;;;;;;;6262228;28;20297;-81
2023/02/02 12:33:23;;;;;;;1.30;1.30;;;;;;;;;;6261647;28;20376;-81
2023/02/02 12:36:40;;;;;;;1.93;1.90;;;;;;;;;;6262532;28;20293;-83
2023/02/02 12:39:54;;;;;;;1.37;1.27;;;;;;;;;;6261931;28;20312;-80
2023/02/02 12:43:10;;;;;;;1.30;1.30;;;;;;;;;;6261635;28;20298;-81
2023/02/02 12:46:45;;;;;;;1.10;1.10;;;;;;;;;;6261702;28;20291;-81
2023/02/02 12:50:04;;;;;;;1.40;1.40;;;;;;;;;;6243200;28;20306;-80
2023/02/02 12:53:20;;;;;;;4.10;1.30;;;;;;;;;;6261920;28;20305;-80
2023/02/02 12:56:31;;;;;;;1.50;1.40;;;;;;;;;;6261366;28;20303;-80
2023/02/02 12:59:53;;;;;;;1.40;1.40;;;;;;;;;;6261508;28;20582;-81
2023/02/02 13:03:16;;;;;;;1.23;1.23;;;;;;;;;;6242964;28;20313;-81
2023/02/02 13:07:02;;;;;;;1.67;1.43;;;;;;;;;;6243775;28;20300;-82
2023/02/02 13:10:17;;;;;;;1.10;1.10;;;;;;;;;;6260971;28;20291;-80
2023/02/02 13:13:24;;;;;;;2.23;1.40;;;;;;;;;;6260511;28;20300;-80
2023/02/02 13:16:32;;;;;;;3.50;1.13;;;;;;;;;;6244435;28;20296;-81
2023/02/02 13:19:42;;;;;;;1.20;1.20;;;;;;;;;;6261341;28;20298;-81
2023/02/02 13:22:50;;;;;;;1.60;1.27;;;;;;;;;;6260580;28;20490;-80
2023/02/02 13:26:00;;;;;;;2.73;1.30;;;;;;;;;;6260704;28;20299;-80
2023/02/02 13:29:08;;;;;;;1.30;1.30;;;;;;;;;;6260520;28;20293;-81
2023/02/02 13:32:19;;;;;;;1.30;1.30;;;;;;;;;;6260717;28;20312;-81
2023/02/02 13:35:31;;;;;;;2.33;1.47;;;;;;;;;;6260503;28;20297;-81
2023/02/02 13:38:40;;;;;;;1.33;1.33;;;;;;;;;;6259714;28;20339;-80
2023/02/02 13:41:46;;;;;;;6.30;1.40;;;;;;;;;;6260796;28;20292;-81
2023/02/02 13:44:55;;;;;;;2.63;1.00;;;;;;;;;;6243002;28;20298;-81
2023/02/02 13:48:08;;;;;;;1.00;1.00;;;;;;;;;;6260127;28;20285;-81
2023/02/02 13:51:31;;;;;;;1.03;1.03;;;;;;;;;;6259805;28;20292;-82
2023/02/02 13:55:06;;;;;;;1.93;1.20;;;;;;;;;;6260649;28;20304;-82
2023/02/02 13:58:28;;;;;;;1.20;1.20;;;;;;;;;;6260126;28;20304;-80
2023/02/02 14:01:34;;;;;;;1.50;0.90;;;;;;;;;;6261390;28;20292;-81
2023/02/02 14:04:39;;;;;;;1.90;1.20;;;;;;;;;;6243637;28;22381;-81
2023/02/02 14:07:47;;;;;;;1.70;1.60;;;;;;;;;;6261182;28;20305;-81
2023/02/02 14:11:01;;;;;;;1.30;1.20;;;;;;;;;;6261465;28;20355;-81
2023/02/02 14:17:53;;;;;;;1.07;1.03;;;;;;;;;;6269414;28;20280;-81
2023/02/02 14:20:59;;;;;;;1.00;1.00;;;;;;;;;;6263373;28;20292;-81
2023/02/02 14:24:43;;;;;;;1.00;1.00;;;;;;;;;;6281103;28;20251;-79
2023/02/02 14:27:57;;;;;;;2.43;1.07;;;;;;;;;;6263782;28;20289;-81
2023/02/02 14:31:26;;;;;;;5.50;1.43;;;;;;;;;;6281274;28;20236;-81
2023/02/02 14:34:34;;;;;;;0.90;0.90;;;;;;;;;;6263509;28;20275;-81
2023/02/02 14:37:47;;;;;;;1.03;1.00;;;;;;;;;;6272656;28;20476;-81
2023/02/02 14:40:58;;;;;;;1.67;1.00;;;;;;;;;;6270090;28;20276;-80
2023/02/02 14:44:04;;;;;;;2.20;1.20;;;;;;;;;;6266229;28;20295;-81
2023/02/02 14:47:39;;;;;;;1.10;1.10;;;;;;;;;;6264975;28;20511;-81
2023/02/02 14:50:51;;;;;;;1.20;1.20;;;;;;;;;;6265693;28;20295;-82
2023/02/02 14:53:58;;;;;;;0.93;0.93;;;;;;;;;;6266619;28;20307;-79
2023/02/02 14:57:22;;;;;;;1.03;1.03;;;;;;;;;;6265192;28;20287;-82
2023/02/02 15:00:33;;;;;;;2.83;1.00;;;;;;;;;;6264075;28;20593;-84
2023/02/02 15:03:57;;;;;;;1.03;1.03;;;;;;;;;;6263865;28;20581;-82
2023/02/02 15:07:36;;;;;;;1.10;1.10;;;;;;;;;;6253297;28;20296;-82
2023/02/02 15:11:26;;;;;;;2.00;1.23;;;;;;;;;;6262828;28;20289;-81
2023/02/02 15:14:33;;;;;;;3.37;1.13;;;;;;;;;;6273915;28;20255;-80
2023/02/02 15:18:06;;;;;;;1.20;1.20;;;;;;;;;;6269946;28;20532;-82
2023/02/02 15:21:17;;;;;;;2.00;1.30;;;;;;;;;;6248474;28;20295;-81
2023/02/02 15:24:26;;;;;;;1.20;1.10;;;;;;;;;;6263423;28;20300;-82
2023/02/02 15:27:32;;;;;;;3.10;1.07;;;;;;;;;;6263992;28;20478;-82
2023/02/02 15:30:44;;;;;;;1.07;1.07;;;;;;;;;;6263261;28;20627;-82
2023/02/02 15:33:51;;;;;;;1.90;1.00;;;;;;;;;;6263397;28;20294;-82
2023/02/02 15:37:00;;;;;;;1.53;1.43;;;;;;;;;;6242396;28;20290;-82
2023/02/02 15:40:08;;;;;;;1.43;1.30;;;;;;;;;;6262825;28;20301;-81
2023/02/02 15:43:14;;;;;;;1.10;1.10;;;;;;;;;;6263239;28;20303;-82
2023/02/02 15:46:25;;;;;;;1.20;1.20;;;;;;;;;;6245632;28;20324;-82
2023/02/02 15:49:32;;;;;;;1.50;1.50;;;;;;;;;;6263133;28;20300;-82
2023/02/02 15:52:46;;;;;;;2.47;2.13;;;;;;;;;;6263020;28;20576;-82
2023/02/02 15:55:52;;;;;;;2.03;1.30;;;;;;;;;;6262184;28;20288;-82
2023/02/02 15:58:58;;;;;;;5.30;1.17;;;;;;;;;;6262899;28;20295;-81
2023/02/02 16:02:20;;;;;;;1.40;1.40;;;;;;;;;;6263461;28;20330;-80
2023/02/02 16:05:38;;;;;;;1.07;1.07;;;;;;;;;;6244553;28;20296;-81
2023/02/02 16:08:44;;;;;;;1.23;1.20;;;;;;;;;;6261229;28;20476;-82
2023/02/02 16:11:49;;;;;;;1.50;1.40;;;;;;;;;;6256922;28;20460;-80
2023/02/02 16:14:56;;;;;;;1.33;1.33;;;;;;;;;;6244183;28;20300;-80
2023/02/02 16:18:04;;;;;;;1.50;1.43;;;;;;;;;;6261703;28;20299;-82
2023/02/02 16:21:17;;;;;;;1.30;1.30;;;;;;;;;;6262714;28;20292;-79
2023/02/02 16:24:25;;;;;;;1.13;1.13;;;;;;;;;;6262260;28;20300;-82
2023/02/02 16:27:31;;;;;;;3.00;1.37;;;;;;;;;;6262454;28;20558;-82
2023/02/02 16:30:38;;;;;;;1.20;1.20;;;;;;;;;;6261794;28;20288;-81
2023/02/02 16:33:45;;;;;;;1.40;1.30;;;;;;;;;;6261957;28;20554;-83
2023/02/02 16:37:05;;;;;;;1.33;1.23;;;;;;;;;;6261303;28;20298;-81
2023/02/02 16:40:17;;;;;;;1.70;1.50;;;;;;;;;;6243388;28;20500;-82
2023/02/02 16:43:29;;;;;;;1.60;1.50;;;;;;;;;;6245082;28;20444;-82
2023/02/02 16:46:44;;;;;;;1.50;1.50;;;;;;;;;;6262660;28;20579;-82
2023/02/02 16:49:52;;;;;;;3.43;1.67;;;;;;;;;;6261684;28;20309;-83
2023/02/02 16:53:00;;;;;;;1.90;1.53;;;;;;;;;;6262303;28;20284;-82
2023/02/02 16:56:06;;;;;;;5.43;3.07;;;;;;;;;;6261888;28;20264;-81
2023/02/02 16:59:19;;;;;;;2.60;2.50;;;;;;;;;;6261393;28;20288;-82
2023/02/02 17:02:28;;;;;;;3.50;3.30;;;;;;;;;;6261376;28;20295;-82
2023/02/02 17:05:39;;;;;;;2.67;2.57;;;;;;;;;;6259908;28;20380;-82
2023/02/02 17:08:44;;;;;;;2.93;2.67;;;;;;;;;;6261314;28;20565;-81
2023/02/02 17:12:01;;;;;;;2.90;2.63;;;;;;;;;;6256384;28;20288;-80
2023/02/02 17:15:33;;;;;;;2.00;1.90;;;;;;;;;;6261361;28;20488;-82
2023/02/02 17:18:40;;;;;;;1.50;1.50;;;;;;;;;;6256849;28;20292;-81
2023/02/02 17:21:48;;;;;;;1.47;1.40;;;;;;;;;;6227326;28;20304;-81
2023/02/02 17:24:54;;;;;;;1.50;1.30;;;;;;;;;;6261411;28;20295;-82
2023/02/02 17:28:00;;;;;;;1.30;1.30;;;;;;;;;;6260407;28;20290;-82
2023/02/02 17:31:08;;;;;;;1.63;1.57;;;;;;;;;;6260726;28;20327;-81
2023/02/02 17:34:14;;;;;;;2.83;1.70;;;;;;;;;;6260201;28;20570;-81
2023/02/02 17:37:21;;;;;;;1.60;1.60;;;;;;;;;;6261028;28;20592;-80
2023/02/02 17:40:27;;;;;;;1.90;1.70;;;;;;;;;;6263033;28;20296;-82
2023/02/02 17:43:33;;;;;;;1.57;1.47;;;;;;;;;;6243577;28;20581;-83
2023/02/02 17:46:40;;;;;;;2.03;1.43;;;;;;;;;;6261451;28;20299;-82
2023/02/02 17:49:45;;;;;;;1.23;1.23;;;;;;;;;;6260113;28;20312;-82
2023/02/02 17:52:52;;;;;;;1.50;1.50;;;;;;;;;;6258556;28;20272;-79
2023/02/02 17:55:57;;;;;;;1.47;1.47;;;;;;;;;;6261082;28;20278;-81
2023/02/02 17:59:02;;;;;;;1.47;1.40;;;;;;;;;;6260662;28;20307;-80
2023/02/02 18:02:09;;;;;;;1.20;1.20;;;;;;;;;;6259775;28;20301;-80
2023/02/02 18:05:16;;;;;;;3.43;1.30;;;;;;;;;;6260888;28;20295;-81
2023/02/02 18:08:24;;;;;;;1.50;1.50;;;;;;;;;;6260157;28;20292;-81
2023/02/02 18:11:29;;;;;;;1.20;1.20;;;;;;;;;;6242812;28;20305;-81
2023/02/02 18:14:35;;;;;;;2.23;1.23;;;;;;;;;;6242471;28;20586;-80
2023/02/02 18:17:41;;;;;;;1.40;1.40;;;;;;;;;;6260065;28;20589;-80
2023/02/02 18:20:50;;;;;;;1.90;1.20;;;;;;;;;;6259843;28;20296;-81
2023/02/02 18:23:57;;;;;;;6.87;1.50;;;;;;;;;;6259760;28;20600;-81
2023/02/02 18:27:07;;;;;;;1.20;1.20;;;;;;;;;;6242100;28;20298;-81
2023/02/02 18:30:14;;;;;;;2.20;2.10;;;;;;;;;;6259415;28;20303;-81
2023/02/02 18:33:19;;;;;;;1.30;1.30;;;;;;;;;;6259489;28;20296;-79
2023/02/02 18:36:25;;;;;;;7.33;3.23;;;;;;;;;;6259774;28;20619;-82
2023/02/02 18:39:32;;;;;;;3.73;2.57;;;;;;;;;;6242956;28;20413;-82
2023/02/02 18:42:37;;;;;;;2.53;1.40;;;;;;;;;;6260640;28;20299;-82
2023/02/02 18:45:43;;;;;;;2.10;1.27;;;;;;;;;;6260635;28;20292;-78
2023/02/02 18:48:48;;;;;;;1.30;1.30;;;;;;;;;;6259582;28;20305;-81
2023/02/02 18:51:54;;;;;;;1.50;1.50;;;;;;;;;;6260444;28;20477;-77
2023/02/02 18:55:01;;;;;;;1.30;1.30;;;;;;;;;;6259559;28;20294;-80
2023/02/02 18:58:09;;;;;;;2.93;1.20;;;;;;;;;;6259474;28;20316;-81
2023/02/02 19:01:17;;;;;;;1.40;1.40;;;;;;;;;;6259912;28;20296;-81
2023/02/02 19:04:22;;;;;;;1.40;1.30;;;;;;;;;;6262932;28;20295;-83
2023/02/02 19:11:00;;;;;;;1.40;1.40;;;;;;;;;;6262592;28;20294;-80
2023/02/02 19:14:11;;;;;;;1.40;1.40;;;;;;;;;;6263483;28;20314;-79
2023/02/02 19:17:23;;;;;;;1.37;1.33;;;;;;;;;;6246876;28;20291;-81
2023/02/02 19:20:31;;;;;;;1.40;1.40;;;;;;;;;;6263554;28;20307;-82
2023/02/02 19:23:44;;;;;;;1.40;1.40;;;;;;;;;;6263642;28;20290;-81